sensor_id;sensor_type;location;lat;lon;timestamp;P1;durP1;ratioP1;P2;durP2;ratioP2
68310;SDS011;55157;51.036;17.058;2023-04-03T00:00:51;11.77;;;3.40;;
68310;SDS011;55157;51.036;17.058;2023-04-03T00:03:16;12.57;;;3.33;;
68310;SDS011;55157;51.036;17.058;2023-04-03T00:05:42;9.15;;;3.83;;
68310;SDS011;55157;51.036;17.058;2023-04-03T00:08:07;13.07;;;3.15;;
68310;SDS011;55157;51.036;17.058;2023-04-03T00:10:32;9.93;;;3.03;;
68310;SDS011;55157;51.036;17.058;2023-04-03T00:12:59;14.52;;;3.25;;
68310;SDS011;55157;51.036;17.058;2023-04-03T00:15:24;11.18;;;3.75;;
68310;SDS011;55157;51.036;17.058;2023-04-03T00:17:49;11.73;;;3.42;;
68310;SDS011;55157;51.036;17.058;2023-04-03T00:20:15;10.00;;;3.35;;
68310;SDS011;55157;51.036;17.058;2023-04-03T00:22:40;12.70;;;3.65;;
68310;SDS011;55157;51.036;17.058;2023-04-03T00:25:06;10.90;;;3.13;;
68310;SDS011;55157;51.036;17.058;2023-04-03T00:27:31;8.25;;;3.28;;
68310;SDS011;55157;51.036;17.058;2023-04-03T00:29:58;14.80;;;4.20;;
68310;SDS011;55157;51.036;17.058;2023-04-03T00:32:23;15.68;;;3.92;;
68310;SDS011;55157;51.036;17.058;2023-04-03T00:34:48;12.90;;;3.65;;
68310;SDS011;55157;51.036;17.058;2023-04-03T00:37:13;16.58;;;4.63;;
68310;SDS011;55157;51.036;17.058;2023-04-03T00:39:39;13.82;;;4.13;;
68310;SDS011;55157;51.036;17.058;2023-04-03T00:42:04;10.85;;;3.67;;
68310;SDS011;55157;51.036;17.058;2023-04-03T00:47:15;12.00;;;3.83;;
68310;SDS011;55157;51.036;17.058;2023-04-03T00:49:41;11.60;;;3.50;;
68310;SDS011;55157;51.036;17.058;2023-04-03T00:52:08;8.18;;;3.03;;
68310;SDS011;55157;51.036;17.058;2023-04-03T00:54:35;13.60;;;3.65;;
68310;SDS011;55157;51.036;17.058;2023-04-03T00:57:01;8.20;;;2.88;;
68310;SDS011;55157;51.036;17.058;2023-04-03T00:59:27;7.88;;;3.38;;
68310;SDS011;55157;51.036;17.058;2023-04-03T01:01:55;18.52;;;3.42;;
68310;SDS011;55157;51.036;17.058;2023-04-03T01:04:27;9.18;;;3.60;;
68310;SDS011;55157;51.036;17.058;2023-04-03T01:06:53;13.40;;;4.45;;
68310;SDS011;55157;51.036;17.058;2023-04-03T01:09:19;14.32;;;3.83;;
68310;SDS011;55157;51.036;17.058;2023-04-03T01:11:44;13.38;;;3.92;;
68310;SDS011;55157;51.036;17.058;2023-04-03T01:14:09;10.18;;;3.47;;
68310;SDS011;55157;51.036;17.058;2023-04-03T01:16:34;14.93;;;3.47;;
68310;SDS011;55157;51.036;17.058;2023-04-03T01:19:00;10.57;;;3.15;;
68310;SDS011;55157;51.036;17.058;2023-04-03T01:24:22;15.15;;;3.95;;
68310;SDS011;55157;51.036;17.058;2023-04-03T01:26:51;11.82;;;3.97;;
68310;SDS011;55157;51.036;17.058;2023-04-03T01:29:16;13.40;;;4.22;;
68310;SDS011;55157;51.036;17.058;2023-04-03T01:31:45;12.95;;;4.97;;
68310;SDS011;55157;51.036;17.058;2023-04-03T01:34:11;14.48;;;3.90;;
68310;SDS011;55157;51.036;17.058;2023-04-03T01:36:36;20.73;;;4.57;;
68310;SDS011;55157;51.036;17.058;2023-04-03T01:39:01;9.93;;;3.05;;
68310;SDS011;55157;51.036;17.058;2023-04-03T01:41:27;11.23;;;4.07;;
68310;SDS011;55157;51.036;17.058;2023-04-03T01:43:52;14.07;;;3.67;;
68310;SDS011;55157;51.036;17.058;2023-04-03T01:46:18;9.38;;;3.67;;
68310;SDS011;55157;51.036;17.058;2023-04-03T01:48:44;18.65;;;4.28;;
68310;SDS011;55157;51.036;17.058;2023-04-03T01:51:10;12.50;;;3.47;;
68310;SDS011;55157;51.036;17.058;2023-04-03T01:53:35;13.25;;;4.30;;
68310;SDS011;55157;51.036;17.058;2023-04-03T01:56:00;13.32;;;4.50;;
68310;SDS011;55157;51.036;17.058;2023-04-03T01:58:26;10.43;;;3.42;;
68310;SDS011;55157;51.036;17.058;2023-04-03T02:00:51;9.77;;;3.22;;
68310;SDS011;55157;51.036;17.058;2023-04-03T02:03:17;8.80;;;3.20;;
68310;SDS011;55157;51.036;17.058;2023-04-03T02:05:44;12.45;;;3.35;;
68310;SDS011;55157;51.036;17.058;2023-04-03T02:08:09;14.60;;;3.60;;
68310;SDS011;55157;51.036;17.058;2023-04-03T02:10:34;12.90;;;4.78;;
68310;SDS011;55157;51.036;17.058;2023-04-03T02:12:59;12.85;;;3.47;;
68310;SDS011;55157;51.036;17.058;2023-04-03T02:15:25;13.52;;;3.60;;
68310;SDS011;55157;51.036;17.058;2023-04-03T02:17:50;11.57;;;3.10;;
68310;SDS011;55157;51.036;17.058;2023-04-03T02:20:15;17.17;;;4.40;;
68310;SDS011;55157;51.036;17.058;2023-04-03T02:22:42;11.90;;;3.70;;
68310;SDS011;55157;51.036;17.058;2023-04-03T02:25:08;15.38;;;3.58;;
68310;SDS011;55157;51.036;17.058;2023-04-03T02:27:33;16.20;;;4.55;;
68310;SDS011;55157;51.036;17.058;2023-04-03T02:29:58;11.63;;;4.07;;
68310;SDS011;55157;51.036;17.058;2023-04-03T02:32:23;11.65;;;3.60;;
68310;SDS011;55157;51.036;17.058;2023-04-03T02:34:49;18.08;;;4.57;;
68310;SDS011;55157;51.036;17.058;2023-04-03T02:37:14;15.20;;;3.10;;
68310;SDS011;55157;51.036;17.058;2023-04-03T02:39:41;15.48;;;4.88;;
68310;SDS011;55157;51.036;17.058;2023-04-03T02:42:06;14.32;;;3.80;;
68310;SDS011;55157;51.036;17.058;2023-04-03T02:44:31;9.93;;;3.70;;
68310;SDS011;55157;51.036;17.058;2023-04-03T02:46:56;16.85;;;4.07;;
68310;SDS011;55157;51.036;17.058;2023-04-03T02:49:22;8.57;;;3.10;;
68310;SDS011;55157;51.036;17.058;2023-04-03T02:51:47;13.55;;;4.53;;
68310;SDS011;55157;51.036;17.058;2023-04-03T02:54:12;14.18;;;3.28;;
68310;SDS011;55157;51.036;17.058;2023-04-03T02:56:39;5.78;;;2.78;;
68310;SDS011;55157;51.036;17.058;2023-04-03T02:59:04;11.73;;;3.20;;
68310;SDS011;55157;51.036;17.058;2023-04-03T03:01:30;12.77;;;4.45;;
68310;SDS011;55157;51.036;17.058;2023-04-03T03:03:55;13.85;;;3.85;;
68310;SDS011;55157;51.036;17.058;2023-04-03T03:06:20;10.48;;;3.10;;
68310;SDS011;55157;51.036;17.058;2023-04-03T03:08:45;10.63;;;3.10;;
68310;SDS011;55157;51.036;17.058;2023-04-03T03:11:11;15.20;;;3.60;;
68310;SDS011;55157;51.036;17.058;2023-04-03T03:13:38;8.55;;;3.65;;
68310;SDS011;55157;51.036;17.058;2023-04-03T03:16:03;17.02;;;3.90;;
68310;SDS011;55157;51.036;17.058;2023-04-03T03:18:29;8.02;;;3.58;;
68310;SDS011;55157;51.036;17.058;2023-04-03T03:20:54;12.38;;;3.47;;
68310;SDS011;55157;51.036;17.058;2023-04-03T03:23:20;12.48;;;4.53;;
68310;SDS011;55157;51.036;17.058;2023-04-03T03:25:45;15.50;;;4.38;;
68310;SDS011;55157;51.036;17.058;2023-04-03T03:28:11;11.93;;;3.70;;
68310;SDS011;55157;51.036;17.058;2023-04-03T03:30:37;14.27;;;3.63;;
68310;SDS011;55157;51.036;17.058;2023-04-03T03:33:03;9.05;;;3.90;;
68310;SDS011;55157;51.036;17.058;2023-04-03T03:35:28;15.18;;;3.70;;
68310;SDS011;55157;51.036;17.058;2023-04-03T03:37:53;10.70;;;3.65;;
68310;SDS011;55157;51.036;17.058;2023-04-03T03:40:18;12.55;;;3.80;;
68310;SDS011;55157;51.036;17.058;2023-04-03T03:42:44;15.95;;;5.20;;
68310;SDS011;55157;51.036;17.058;2023-04-03T03:45:09;10.43;;;4.13;;
68310;SDS011;55157;51.036;17.058;2023-04-03T03:47:36;9.35;;;4.22;;
68310;SDS011;55157;51.036;17.058;2023-04-03T03:50:01;13.02;;;4.63;;
68310;SDS011;55157;51.036;17.058;2023-04-03T03:52:27;11.38;;;4.50;;
68310;SDS011;55157;51.036;17.058;2023-04-03T03:54:52;17.00;;;4.85;;
68310;SDS011;55157;51.036;17.058;2023-04-03T03:57:17;15.30;;;4.60;;
68310;SDS011;55157;51.036;17.058;2023-04-03T03:59:42;16.98;;;4.40;;
68310;SDS011;55157;51.036;17.058;2023-04-03T04:02:08;13.90;;;4.95;;
68310;SDS011;55157;51.036;17.058;2023-04-03T04:04:35;15.65;;;4.28;;
68310;SDS011;55157;51.036;17.058;2023-04-03T04:07:00;12.77;;;4.40;;
68310;SDS011;55157;51.036;17.058;2023-04-03T04:09:25;16.00;;;5.05;;
68310;SDS011;55157;51.036;17.058;2023-04-03T04:11:50;15.25;;;4.53;;
68310;SDS011;55157;51.036;17.058;2023-04-03T04:14:16;12.13;;;4.70;;
68310;SDS011;55157;51.036;17.058;2023-04-03T04:16:41;16.42;;;5.47;;
68310;SDS011;55157;51.036;17.058;2023-04-03T04:19:06;13.32;;;5.40;;
68310;SDS011;55157;51.036;17.058;2023-04-03T04:21:33;15.48;;;5.20;;
68310;SDS011;55157;51.036;17.058;2023-04-03T04:23:58;19.88;;;5.90;;
68310;SDS011;55157;51.036;17.058;2023-04-03T04:26:23;16.10;;;5.10;;
68310;SDS011;55157;51.036;17.058;2023-04-03T04:28:49;10.45;;;4.68;;
68310;SDS011;55157;51.036;17.058;2023-04-03T04:31:14;12.00;;;5.03;;
68310;SDS011;55157;51.036;17.058;2023-04-03T04:33:39;13.98;;;4.85;;
68310;SDS011;55157;51.036;17.058;2023-04-03T04:36:04;15.40;;;5.07;;
68310;SDS011;55157;51.036;17.058;2023-04-03T04:38:31;16.08;;;6.10;;
68310;SDS011;55157;51.036;17.058;2023-04-03T04:40:56;16.10;;;5.00;;
68310;SDS011;55157;51.036;17.058;2023-04-03T04:43:22;15.98;;;5.05;;
68310;SDS011;55157;51.036;17.058;2023-04-03T04:45:47;14.32;;;5.25;;
68310;SDS011;55157;51.036;17.058;2023-04-03T04:48:12;10.73;;;4.22;;
68310;SDS011;55157;51.036;17.058;2023-04-03T04:50:37;19.38;;;4.97;;
68310;SDS011;55157;51.036;17.058;2023-04-03T04:53:03;19.25;;;5.45;;
68310;SDS011;55157;51.036;17.058;2023-04-03T04:55:29;22.15;;;6.65;;
68310;SDS011;55157;51.036;17.058;2023-04-03T04:57:56;11.70;;;4.93;;
68310;SDS011;55157;51.036;17.058;2023-04-03T05:00:21;17.40;;;4.82;;
68310;SDS011;55157;51.036;17.058;2023-04-03T05:02:46;14.82;;;4.70;;
68310;SDS011;55157;51.036;17.058;2023-04-03T05:05:12;20.60;;;6.47;;
68310;SDS011;55157;51.036;17.058;2023-04-03T05:07:37;13.10;;;4.60;;
68310;SDS011;55157;51.036;17.058;2023-04-03T05:10:02;13.43;;;4.85;;
68310;SDS011;55157;51.036;17.058;2023-04-03T05:12:29;6.53;;;3.38;;
68310;SDS011;55157;51.036;17.058;2023-04-03T05:14:54;11.73;;;4.10;;
68310;SDS011;55157;51.036;17.058;2023-04-03T05:17:20;17.17;;;4.22;;
68310;SDS011;55157;51.036;17.058;2023-04-03T05:19:45;14.85;;;5.38;;
68310;SDS011;55157;51.036;17.058;2023-04-03T05:22:10;11.98;;;4.55;;
68310;SDS011;55157;51.036;17.058;2023-04-03T05:24:36;17.80;;;4.50;;
68310;SDS011;55157;51.036;17.058;2023-04-03T05:27:01;10.18;;;3.75;;
68310;SDS011;55157;51.036;17.058;2023-04-03T05:29:28;9.95;;;4.13;;
68310;SDS011;55157;51.036;17.058;2023-04-03T05:31:53;6.43;;;2.80;;
68310;SDS011;55157;51.036;17.058;2023-04-03T05:34:18;15.25;;;4.03;;
68310;SDS011;55157;51.036;17.058;2023-04-03T05:36:43;13.25;;;3.63;;
68310;SDS011;55157;51.036;17.058;2023-04-03T05:39:09;18.33;;;4.05;;
68310;SDS011;55157;51.036;17.058;2023-04-03T05:41:34;8.38;;;3.70;;
68310;SDS011;55157;51.036;17.058;2023-04-03T05:43:59;12.32;;;3.83;;
68310;SDS011;55157;51.036;17.058;2023-04-03T05:46:26;12.20;;;3.30;;
68310;SDS011;55157;51.036;17.058;2023-04-03T05:48:51;14.15;;;4.35;;
68310;SDS011;55157;51.036;17.058;2023-04-03T05:51:17;14.20;;;4.30;;
68310;SDS011;55157;51.036;17.058;2023-04-03T05:53:43;12.90;;;3.60;;
68310;SDS011;55157;51.036;17.058;2023-04-03T05:56:08;17.48;;;4.50;;
68310;SDS011;55157;51.036;17.058;2023-04-03T05:58:34;16.15;;;4.22;;
68310;SDS011;55157;51.036;17.058;2023-04-03T06:00:59;9.80;;;3.42;;
68310;SDS011;55157;51.036;17.058;2023-04-03T06:03:26;14.10;;;3.53;;
68310;SDS011;55157;51.036;17.058;2023-04-03T06:05:51;16.35;;;4.72;;
68310;SDS011;55157;51.036;17.058;2023-04-03T06:08:16;11.07;;;3.67;;
68310;SDS011;55157;51.036;17.058;2023-04-03T06:10:41;11.57;;;3.78;;
68310;SDS011;55157;51.036;17.058;2023-04-03T06:13:07;17.75;;;5.80;;
68310;SDS011;55157;51.036;17.058;2023-04-03T06:15:32;12.13;;;4.97;;
68310;SDS011;55157;51.036;17.058;2023-04-03T06:17:57;15.65;;;4.78;;
68310;SDS011;55157;51.036;17.058;2023-04-03T06:20:24;17.77;;;4.40;;
68310;SDS011;55157;51.036;17.058;2023-04-03T06:22:49;11.75;;;3.67;;
68310;SDS011;55157;51.036;17.058;2023-04-03T06:25:14;17.52;;;3.65;;
68310;SDS011;55157;51.036;17.058;2023-04-03T06:27:40;10.15;;;4.45;;
68310;SDS011;55157;51.036;17.058;2023-04-03T06:30:06;12.35;;;4.65;;
68310;SDS011;55157;51.036;17.058;2023-04-03T06:32:31;11.65;;;4.35;;
68310;SDS011;55157;51.036;17.058;2023-04-03T06:34:56;14.20;;;5.65;;
68310;SDS011;55157;51.036;17.058;2023-04-03T06:37:23;15.43;;;5.93;;
68310;SDS011;55157;51.036;17.058;2023-04-03T06:39:48;12.10;;;4.55;;
68310;SDS011;55157;51.036;17.058;2023-04-03T06:42:14;18.83;;;6.50;;
68310;SDS011;55157;51.036;17.058;2023-04-03T06:44:39;13.88;;;6.93;;
68310;SDS011;55157;51.036;17.058;2023-04-03T06:47:04;22.50;;;8.20;;
68310;SDS011;55157;51.036;17.058;2023-04-03T06:49:31;8.88;;;3.75;;
68310;SDS011;55157;51.036;17.058;2023-04-03T06:51:56;15.50;;;6.20;;
68310;SDS011;55157;51.036;17.058;2023-04-03T06:54:23;22.23;;;7.15;;
68310;SDS011;55157;51.036;17.058;2023-04-03T06:56:48;15.23;;;4.53;;
68310;SDS011;55157;51.036;17.058;2023-04-03T06:59:14;13.95;;;4.47;;
68310;SDS011;55157;51.036;17.058;2023-04-03T07:01:39;21.73;;;7.63;;
68310;SDS011;55157;51.036;17.058;2023-04-03T07:04:04;13.60;;;4.40;;
68310;SDS011;55157;51.036;17.058;2023-04-03T07:06:29;14.60;;;3.90;;
68310;SDS011;55157;51.036;17.058;2023-04-03T07:08:55;16.30;;;7.03;;
68310;SDS011;55157;51.036;17.058;2023-04-03T07:11:21;17.15;;;5.75;;
68310;SDS011;55157;51.036;17.058;2023-04-03T07:13:47;18.73;;;5.93;;
68310;SDS011;55157;51.036;17.058;2023-04-03T07:16:12;18.48;;;5.25;;
68310;SDS011;55157;51.036;17.058;2023-04-03T07:18:37;11.93;;;3.75;;
68310;SDS011;55157;51.036;17.058;2023-04-03T07:21:03;11.43;;;3.28;;
68310;SDS011;55157;51.036;17.058;2023-04-03T07:23:28;10.90;;;3.35;;
68310;SDS011;55157;51.036;17.058;2023-04-03T07:25:54;12.40;;;5.07;;
68310;SDS011;55157;51.036;17.058;2023-04-03T07:28:21;12.20;;;3.17;;
68310;SDS011;55157;51.036;17.058;2023-04-03T07:30:46;8.70;;;4.68;;
68310;SDS011;55157;51.036;17.058;2023-04-03T07:33:12;18.10;;;4.03;;
68310;SDS011;55157;51.036;17.058;2023-04-03T07:35:38;13.30;;;4.18;;
68310;SDS011;55157;51.036;17.058;2023-04-03T07:38:03;13.35;;;3.70;;
68310;SDS011;55157;51.036;17.058;2023-04-03T07:40:28;9.35;;;3.13;;
68310;SDS011;55157;51.036;17.058;2023-04-03T07:42:54;10.90;;;3.60;;
68310;SDS011;55157;51.036;17.058;2023-04-03T07:45:20;12.00;;;4.45;;
68310;SDS011;55157;51.036;17.058;2023-04-03T07:47:46;9.82;;;3.58;;
68310;SDS011;55157;51.036;17.058;2023-04-03T07:50:11;7.82;;;2.80;;
68310;SDS011;55157;51.036;17.058;2023-04-03T07:52:36;11.77;;;4.32;;
68310;SDS011;55157;51.036;17.058;2023-04-03T07:55:02;13.07;;;4.53;;
68310;SDS011;55157;51.036;17.058;2023-04-03T07:57:27;7.70;;;3.65;;
68310;SDS011;55157;51.036;17.058;2023-04-03T07:59:52;7.50;;;3.10;;
68310;SDS011;55157;51.036;17.058;2023-04-03T08:02:19;9.63;;;5.40;;
68310;SDS011;55157;51.036;17.058;2023-04-03T08:04:44;14.48;;;6.38;;
68310;SDS011;55157;51.036;17.058;2023-04-03T08:07:09;6.22;;;3.03;;
68310;SDS011;55157;51.036;17.058;2023-04-03T08:09:34;9.20;;;3.00;;
68310;SDS011;55157;51.036;17.058;2023-04-03T08:12:00;9.75;;;3.00;;
68310;SDS011;55157;51.036;17.058;2023-04-03T08:14:25;9.40;;;3.35;;
68310;SDS011;55157;51.036;17.058;2023-04-03T08:16:50;6.75;;;2.28;;
68310;SDS011;55157;51.036;17.058;2023-04-03T08:19:17;13.80;;;3.65;;
68310;SDS011;55157;51.036;17.058;2023-04-03T08:21:42;7.20;;;3.33;;
68310;SDS011;55157;51.036;17.058;2023-04-03T08:24:07;9.45;;;5.47;;
68310;SDS011;55157;51.036;17.058;2023-04-03T08:26:33;7.57;;;3.42;;
68310;SDS011;55157;51.036;17.058;2023-04-03T08:28:58;7.32;;;2.53;;
68310;SDS011;55157;51.036;17.058;2023-04-03T08:31:23;8.50;;;3.42;;
68310;SDS011;55157;51.036;17.058;2023-04-03T08:33:48;6.15;;;2.80;;
68310;SDS011;55157;51.036;17.058;2023-04-03T08:36:18;8.23;;;2.75;;
68310;SDS011;55157;51.036;17.058;2023-04-03T08:38:44;7.88;;;2.80;;
68310;SDS011;55157;51.036;17.058;2023-04-03T08:41:11;5.15;;;2.28;;
68310;SDS011;55157;51.036;17.058;2023-04-03T08:43:40;5.22;;;2.30;;
68310;SDS011;55157;51.036;17.058;2023-04-03T08:46:14;4.82;;;2.35;;
68310;SDS011;55157;51.036;17.058;2023-04-03T08:48:40;3.70;;;2.25;;
68310;SDS011;55157;51.036;17.058;2023-04-03T08:51:08;7.00;;;2.63;;
68310;SDS011;55157;51.036;17.058;2023-04-03T08:53:39;9.43;;;2.70;;
68310;SDS011;55157;51.036;17.058;2023-04-03T08:56:05;7.28;;;3.15;;
68310;SDS011;55157;51.036;17.058;2023-04-03T08:58:33;6.70;;;2.38;;
68310;SDS011;55157;51.036;17.058;2023-04-03T09:03:31;8.70;;;4.32;;
68310;SDS011;55157;51.036;17.058;2023-04-03T09:05:57;6.45;;;3.30;;
68310;SDS011;55157;51.036;17.058;2023-04-03T09:08:26;5.65;;;2.45;;
68310;SDS011;55157;51.036;17.058;2023-04-03T09:10:55;7.43;;;2.22;;
68310;SDS011;55157;51.036;17.058;2023-04-03T09:13:24;5.45;;;3.00;;
68310;SDS011;55157;51.036;17.058;2023-04-03T09:15:51;6.40;;;2.90;;
68310;SDS011;55157;51.036;17.058;2023-04-03T09:18:19;4.28;;;2.17;;
68310;SDS011;55157;51.036;17.058;2023-04-03T09:20:46;6.68;;;2.38;;
68310;SDS011;55157;51.036;17.058;2023-04-03T09:23:17;12.50;;;2.53;;
68310;SDS011;55157;51.036;17.058;2023-04-03T09:25:43;4.07;;;2.50;;
68310;SDS011;55157;51.036;17.058;2023-04-03T09:28:10;6.25;;;2.75;;
68310;SDS011;55157;51.036;17.058;2023-04-03T09:30:35;3.95;;;2.10;;
68310;SDS011;55157;51.036;17.058;2023-04-03T09:33:01;6.93;;;2.67;;
68310;SDS011;55157;51.036;17.058;2023-04-03T09:35:27;11.10;;;2.33;;
68310;SDS011;55157;51.036;17.058;2023-04-03T09:37:53;4.88;;;1.90;;
68310;SDS011;55157;51.036;17.058;2023-04-03T09:40:32;6.75;;;2.10;;
68310;SDS011;55157;51.036;17.058;2023-04-03T09:42:59;8.23;;;2.17;;
68310;SDS011;55157;51.036;17.058;2023-04-03T09:45:27;8.00;;;2.55;;
68310;SDS011;55157;51.036;17.058;2023-04-03T09:48:03;5.32;;;2.67;;
68310;SDS011;55157;51.036;17.058;2023-04-03T09:50:29;4.80;;;2.15;;
68310;SDS011;55157;51.036;17.058;2023-04-03T09:52:54;5.55;;;2.20;;
68310;SDS011;55157;51.036;17.058;2023-04-03T09:55:19;5.82;;;2.10;;
68310;SDS011;55157;51.036;17.058;2023-04-03T09:57:46;4.88;;;2.13;;
68310;SDS011;55157;51.036;17.058;2023-04-03T10:00:19;4.93;;;1.65;;
68310;SDS011;55157;51.036;17.058;2023-04-03T10:02:46;5.53;;;2.22;;
68310;SDS011;55157;51.036;17.058;2023-04-03T10:05:28;6.25;;;2.25;;
68310;SDS011;55157;51.036;17.058;2023-04-03T10:08:06;6.28;;;2.33;;
68310;SDS011;55157;51.036;17.058;2023-04-03T10:10:31;4.60;;;2.08;;
68310;SDS011;55157;51.036;17.058;2023-04-03T10:13:03;5.45;;;2.08;;
68310;SDS011;55157;51.036;17.058;2023-04-03T10:15:28;7.47;;;2.30;;
68310;SDS011;55157;51.036;17.058;2023-04-03T10:18:00;7.63;;;1.88;;
68310;SDS011;55157;51.036;17.058;2023-04-03T10:20:30;4.18;;;1.90;;
68310;SDS011;55157;51.036;17.058;2023-04-03T10:23:00;5.78;;;2.10;;
68310;SDS011;55157;51.036;17.058;2023-04-03T10:25:28;6.75;;;2.20;;
68310;SDS011;55157;51.036;17.058;2023-04-03T10:27:55;11.60;;;4.10;;
68310;SDS011;55157;51.036;17.058;2023-04-03T10:30:28;4.82;;;2.35;;
68310;SDS011;55157;51.036;17.058;2023-04-03T10:33:00;5.55;;;1.98;;
68310;SDS011;55157;51.036;17.058;2023-04-03T10:35:34;3.75;;;1.73;;
68310;SDS011;55157;51.036;17.058;2023-04-03T10:38:03;7.80;;;2.72;;
68310;SDS011;55157;51.036;17.058;2023-04-03T10:40:33;5.60;;;2.33;;
68310;SDS011;55157;51.036;17.058;2023-04-03T10:43:01;6.13;;;2.20;;
68310;SDS011;55157;51.036;17.058;2023-04-03T10:45:28;7.47;;;2.95;;
68310;SDS011;55157;51.036;17.058;2023-04-03T10:47:57;6.70;;;2.28;;
68310;SDS011;55157;51.036;17.058;2023-04-03T10:50:29;8.32;;;3.30;;
68310;SDS011;55157;51.036;17.058;2023-04-03T10:52:56;3.60;;;2.28;;
68310;SDS011;55157;51.036;17.058;2023-04-03T10:55:24;4.47;;;2.50;;
68310;SDS011;55157;51.036;17.058;2023-04-03T10:57:55;6.25;;;2.63;;
68310;SDS011;55157;51.036;17.058;2023-04-03T11:00:22;7.47;;;2.80;;
68310;SDS011;55157;51.036;17.058;2023-04-03T11:02:52;7.00;;;2.42;;
68310;SDS011;55157;51.036;17.058;2023-04-03T11:05:21;4.40;;;1.90;;
68310;SDS011;55157;51.036;17.058;2023-04-03T11:07:52;4.90;;;1.90;;
68310;SDS011;55157;51.036;17.058;2023-04-03T11:10:20;5.88;;;2.38;;
68310;SDS011;55157;51.036;17.058;2023-04-03T11:12:47;6.20;;;2.70;;
68310;SDS011;55157;51.036;17.058;2023-04-03T11:15:15;5.18;;;2.50;;
68310;SDS011;55157;51.036;17.058;2023-04-03T11:17:41;7.03;;;2.22;;
68310;SDS011;55157;51.036;17.058;2023-04-03T11:20:09;5.32;;;2.45;;
68310;SDS011;55157;51.036;17.058;2023-04-03T11:22:39;5.03;;;2.60;;
68310;SDS011;55157;51.036;17.058;2023-04-03T11:25:14;6.68;;;2.42;;
68310;SDS011;55157;51.036;17.058;2023-04-03T11:27:41;7.00;;;2.40;;
68310;SDS011;55157;51.036;17.058;2023-04-03T11:30:07;6.00;;;2.30;;
68310;SDS011;55157;51.036;17.058;2023-04-03T11:35:15;10.45;;;1.95;;
68310;SDS011;55157;51.036;17.058;2023-04-03T11:37:41;5.57;;;2.60;;
68310;SDS011;55157;51.036;17.058;2023-04-03T11:40:21;3.95;;;1.90;;
68310;SDS011;55157;51.036;17.058;2023-04-03T11:42:47;7.05;;;2.28;;
68310;SDS011;55157;51.036;17.058;2023-04-03T11:45:24;6.32;;;2.92;;
68310;SDS011;55157;51.036;17.058;2023-04-03T11:47:50;6.32;;;2.70;;
68310;SDS011;55157;51.036;17.058;2023-04-03T11:53:00;8.82;;;1.88;;
68310;SDS011;55157;51.036;17.058;2023-04-03T11:55:43;7.97;;;2.20;;
68310;SDS011;55157;51.036;17.058;2023-04-03T11:58:12;4.47;;;2.13;;
68310;SDS011;55157;51.036;17.058;2023-04-03T12:01:01;4.75;;;2.35;;
68310;SDS011;55157;51.036;17.058;2023-04-03T12:08:53;7.32;;;2.25;;
68310;SDS011;55157;51.036;17.058;2023-04-03T12:11:23;7.60;;;2.10;;
68310;SDS011;55157;51.036;17.058;2023-04-03T12:14:01;6.03;;;2.50;;
68310;SDS011;55157;51.036;17.058;2023-04-03T12:16:28;5.40;;;2.67;;
68310;SDS011;55157;51.036;17.058;2023-04-03T12:18:57;4.35;;;2.55;;
68310;SDS011;55157;51.036;17.058;2023-04-03T12:21:24;6.05;;;2.70;;
68310;SDS011;55157;51.036;17.058;2023-04-03T12:24:23;4.35;;;2.38;;
68310;SDS011;55157;51.036;17.058;2023-04-03T12:26:50;4.32;;;2.08;;
68310;SDS011;55157;51.036;17.058;2023-04-03T12:29:27;11.35;;;2.38;;
68310;SDS011;55157;51.036;17.058;2023-04-03T12:31:56;7.45;;;2.30;;
68310;SDS011;55157;51.036;17.058;2023-04-03T12:34:42;7.38;;;2.10;;
68310;SDS011;55157;51.036;17.058;2023-04-03T12:37:16;8.15;;;2.45;;
68310;SDS011;55157;51.036;17.058;2023-04-03T12:39:48;6.93;;;2.10;;
68310;SDS011;55157;51.036;17.058;2023-04-03T12:42:20;6.28;;;2.17;;
68310;SDS011;55157;51.036;17.058;2023-04-03T12:44:49;7.15;;;2.35;;
68310;SDS011;55157;51.036;17.058;2023-04-03T12:47:22;7.45;;;2.42;;
68310;SDS011;55157;51.036;17.058;2023-04-03T12:49:47;4.93;;;2.45;;
68310;SDS011;55157;51.036;17.058;2023-04-03T12:52:16;3.63;;;2.17;;
68310;SDS011;55157;51.036;17.058;2023-04-03T12:54:42;5.07;;;2.03;;
68310;SDS011;55157;51.036;17.058;2023-04-03T12:57:10;4.35;;;2.40;;
68310;SDS011;55157;51.036;17.058;2023-04-03T12:59:37;6.35;;;2.22;;
68310;SDS011;55157;51.036;17.058;2023-04-03T13:02:03;9.88;;;2.78;;
68310;SDS011;55157;51.036;17.058;2023-04-03T13:04:28;4.32;;;2.65;;
68310;SDS011;55157;51.036;17.058;2023-04-03T13:06:54;5.85;;;2.55;;
68310;SDS011;55157;51.036;17.058;2023-04-03T13:09:20;5.85;;;2.33;;
68310;SDS011;55157;51.036;17.058;2023-04-03T13:11:46;4.72;;;2.10;;
68310;SDS011;55157;51.036;17.058;2023-04-03T13:14:14;6.78;;;2.40;;
68310;SDS011;55157;51.036;17.058;2023-04-03T13:16:41;5.43;;;2.80;;
68310;SDS011;55157;51.036;17.058;2023-04-03T13:19:14;4.68;;;2.38;;
68310;SDS011;55157;51.036;17.058;2023-04-03T13:21:40;6.93;;;2.72;;
68310;SDS011;55157;51.036;17.058;2023-04-03T13:24:06;5.97;;;2.40;;
68310;SDS011;55157;51.036;17.058;2023-04-03T13:48:23;10.20;;;4.60;;
68310;SDS011;55157;51.036;17.058;2023-04-03T13:50:56;30.50;;;5.43;;
68310;SDS011;55157;51.036;17.058;2023-04-03T13:53:22;6.78;;;3.47;;
68310;SDS011;55157;51.036;17.058;2023-04-03T13:55:55;4.55;;;2.55;;
68310;SDS011;55157;51.036;17.058;2023-04-03T14:00:47;4.85;;;2.80;;
68310;SDS011;55157;51.036;17.058;2023-04-03T14:03:13;9.13;;;3.95;;
68310;SDS011;55157;51.036;17.058;2023-04-03T14:05:40;6.10;;;2.80;;
68310;SDS011;55157;51.036;17.058;2023-04-03T14:08:06;9.77;;;3.00;;
68310;SDS011;55157;51.036;17.058;2023-04-03T14:10:31;11.73;;;4.55;;
68310;SDS011;55157;51.036;17.058;2023-04-03T14:12:56;7.82;;;3.22;;
68310;SDS011;55157;51.036;17.058;2023-04-03T14:15:22;9.07;;;3.10;;
68310;SDS011;55157;51.036;17.058;2023-04-03T14:17:48;7.85;;;3.10;;
68310;SDS011;55157;51.036;17.058;2023-04-03T14:20:16;6.95;;;2.83;;
68310;SDS011;55157;51.036;17.058;2023-04-03T14:22:51;5.38;;;3.00;;
68310;SDS011;55157;51.036;17.058;2023-04-03T14:25:18;5.75;;;3.10;;
68310;SDS011;55157;51.036;17.058;2023-04-03T14:27:44;9.00;;;2.90;;
68310;SDS011;55157;51.036;17.058;2023-04-03T14:30:12;12.35;;;2.58;;
68310;SDS011;55157;51.036;17.058;2023-04-03T14:32:38;5.53;;;2.88;;
68310;SDS011;55157;51.036;17.058;2023-04-03T14:35:04;4.93;;;3.28;;
68310;SDS011;55157;51.036;17.058;2023-04-03T14:37:29;9.32;;;3.10;;
68310;SDS011;55157;51.036;17.058;2023-04-03T14:39:57;4.72;;;3.20;;
68310;SDS011;55157;51.036;17.058;2023-04-03T14:42:25;5.90;;;2.70;;
68310;SDS011;55157;51.036;17.058;2023-04-03T14:44:51;8.77;;;2.80;;
68310;SDS011;55157;51.036;17.058;2023-04-03T14:47:19;6.57;;;3.20;;
68310;SDS011;55157;51.036;17.058;2023-04-03T14:49:44;5.50;;;3.30;;
68310;SDS011;55157;51.036;17.058;2023-04-03T14:52:16;10.48;;;2.72;;
68310;SDS011;55157;51.036;17.058;2023-04-03T14:54:42;5.78;;;2.42;;
68310;SDS011;55157;51.036;17.058;2023-04-03T14:57:09;5.90;;;2.67;;
68310;SDS011;55157;51.036;17.058;2023-04-03T14:59:36;6.72;;;2.83;;
68310;SDS011;55157;51.036;17.058;2023-04-03T15:02:01;5.75;;;2.72;;
68310;SDS011;55157;51.036;17.058;2023-04-03T15:04:27;4.03;;;2.47;;
68310;SDS011;55157;51.036;17.058;2023-04-03T15:06:52;4.05;;;2.50;;
68310;SDS011;55157;51.036;17.058;2023-04-03T15:09:19;4.47;;;2.30;;